createdAt,value
2019-01-29T00:00:30.399Z,98929.30
2019-01-29T00:03:02.062Z,98934.03
2019-01-29T00:05:33.774Z,98934.67
2019-01-29T00:08:05.345Z,98932.31
2019-01-29T00:10:37.083Z,98934.21
2019-01-29T00:13:08.730Z,98930.61
2019-01-29T00:15:40.381Z,98933.22
2019-01-29T00:18:12.047Z,98927.52
2019-01-29T00:20:43.766Z,98930.73
2019-01-29T00:23:15.350Z,98930.91
2019-01-29T00:25:47.014Z,98932.23
2019-01-29T00:28:18.827Z,98939.43
2019-01-29T00:30:50.512Z,98936.01
2019-01-29T00:33:22.209Z,98942.98
2019-01-29T00:35:53.792Z,98939.33
2019-01-29T00:38:25.440Z,98941.23
2019-01-29T00:40:57.032Z,98939.82
2019-01-29T00:43:28.788Z,98940.83
2019-01-29T00:46:00.373Z,98940.42
2019-01-29T00:48:31.939Z,98944.52
2019-01-29T00:51:03.646Z,98942.21
2019-01-29T00:53:35.308Z,98948.73
2019-01-29T00:56:06.890Z,98943.42
2019-01-29T00:58:38.469Z,98954.06
2019-01-29T01:01:10.063Z,98950.54
2019-01-29T01:03:41.694Z,98946.48
2019-01-29T01:06:13.285Z,98949.30
2019-01-29T01:08:44.855Z,98951.20
2019-01-29T01:11:16.517Z,98947.98
2019-01-29T01:13:48.160Z,98950.52
2019-01-29T01:16:20.146Z,98951.98
2019-01-29T01:18:52.201Z,98956.51
2019-01-29T01:21:23.782Z,98952.59
2019-01-29T01:23:55.359Z,98955.30
2019-01-29T01:26:27.016Z,98953.62
2019-01-29T01:28:58.596Z,98954.46
2019-01-29T01:31:30.187Z,98963.05
2019-01-29T01:34:01.774Z,98958.41
2019-01-29T01:36:33.454Z,98960.56
2019-01-29T01:39:08.262Z,98964.37
2019-01-29T01:41:39.860Z,98963.05
2019-01-29T01:44:11.428Z,98961.34
2019-01-29T01:46:43.022Z,98959.53
2019-01-29T01:49:14.666Z,98957.66
2019-01-29T01:51:46.293Z,98959.81
2019-01-29T01:54:21.151Z,98959.73
2019-01-29T01:56:53.117Z,98958.66
2019-01-29T01:59:25.042Z,98961.86
2019-01-29T02:01:56.622Z,98957.25
2019-01-29T02:04:28.256Z,98963.25
2019-01-29T02:06:59.922Z,98970.05
2019-01-29T02:09:31.551Z,98964.45
2019-01-29T02:12:03.127Z,98965.26
2019-01-29T02:14:34.699Z,98971.69
2019-01-29T02:17:06.368Z,98970.39
2019-01-29T02:19:38.002Z,98974.05
2019-01-29T02:22:09.599Z,98978.01
2019-01-29T02:24:41.244Z,98977.63
2019-01-29T02:27:12.903Z,98978.59
2019-01-29T02:29:44.846Z,98990.45
2019-01-29T02:32:17.695Z,98988.39
2019-01-29T02:34:49.324Z,98988.72
2019-01-29T02:37:21.295Z,98993.81
2019-01-29T02:39:53.101Z,98999.50
2019-01-29T02:42:25.057Z,98991.48
2019-01-29T02:44:56.687Z,98996.77
2019-01-29T02:47:29.319Z,98995.34
2019-01-29T02:50:00.934Z,99000.45
2019-01-29T02:52:32.615Z,98997.98
2019-01-29T02:55:04.193Z,99003.66
2019-01-29T02:57:35.841Z,99005.55
2019-01-29T03:00:10.700Z,99009.45
2019-01-29T03:02:42.407Z,99010.47
2019-01-29T03:05:14.174Z,99010.02
2019-01-29T03:07:45.830Z,99011.88
2019-01-29T03:10:19.432Z,99019.93
2019-01-29T03:12:51.214Z,99014.52
2019-01-29T03:15:25.758Z,99025.34
2019-01-29T03:17:57.490Z,99023.04
2019-01-29T03:20:29.042Z,99024.93
2019-01-29T03:23:00.670Z,99022.39
2019-01-29T03:25:32.300Z,99027.95
2019-01-29T03:28:04.113Z,99029.95
2019-01-29T03:30:35.755Z,99025.31
2019-01-29T03:33:07.332Z,99034.02
2019-01-29T03:35:38.967Z,99035.26
2019-01-29T03:38:10.536Z,99035.07
2019-01-29T03:40:42.122Z,99034.31
2019-01-29T03:43:13.707Z,99039.42
2019-01-29T03:45:45.331Z,99041.88
2019-01-29T03:48:16.919Z,99046.98
2019-01-29T03:50:48.854Z,99052.48
2019-01-29T03:53:20.505Z,99049.45
2019-01-29T03:55:52.218Z,99057.09
2019-01-29T03:58:23.960Z,99051.53
2019-01-29T04:00:55.504Z,99060.50
2019-01-29T04:03:27.149Z,99051.42
2019-01-29T04:05:58.775Z,99060.88
2019-01-29T04:08:30.430Z,99063.45
2019-01-29T04:11:02.056Z,99064.29
2019-01-29T04:13:33.687Z,99068.19
2019-01-29T04:16:05.240Z,99073.30
2019-01-29T04:18:36.883Z,99074.88
2019-01-29T04:21:08.498Z,99078.29
2019-01-29T04:23:47.447Z,99073.37
2019-01-29T04:26:13.360Z,99081.42
2019-01-29T04:28:44.924Z,99077.64
2019-01-29T04:31:16.482Z,99090.51
2019-01-29T04:33:48.171Z,99083.70
2019-01-29T04:36:20.070Z,99091.07
2019-01-29T04:38:52.011Z,99092.50
2019-01-29T04:41:23.557Z,99101.48
2019-01-29T04:43:55.128Z,99096.75
2019-01-29T04:46:26.697Z,99102.42
2019-01-29T04:48:58.271Z,99104.23
2019-01-29T04:51:29.839Z,99105.91
2019-01-29T04:54:01.518Z,99107.45
2019-01-29T04:56:33.136Z,99110.75
2019-01-29T04:59:04.788Z,99112.27
2019-01-29T05:01:36.422Z,99113.98
2019-01-29T05:04:08.011Z,99122.50
2019-01-29T05:06:40.104Z,99118.22
2019-01-29T05:09:11.754Z,99127.03
2019-01-29T05:11:43.326Z,99127.60
2019-01-29T05:14:14.893Z,99136.38
2019-01-29T05:16:46.452Z,99143.01
2019-01-29T05:19:18.325Z,99149.38
2019-01-29T05:21:50.067Z,99156.45
2019-01-29T05:24:22.018Z,99156.36
2019-01-29T05:26:53.575Z,99160.05
2019-01-29T05:29:25.226Z,99158.52
2019-01-29T05:31:56.813Z,99167.61
2019-01-29T05:34:28.456Z,99165.07
2019-01-29T05:37:00.094Z,99176.03
2019-01-29T05:39:31.680Z,99173.58
2019-01-29T05:42:03.275Z,99178.95
2019-01-29T05:44:34.843Z,99184.18
2019-01-29T05:47:06.508Z,99181.24
2019-01-29T05:49:38.086Z,99182.66
2019-01-29T05:52:11.494Z,99188.90
2019-01-29T05:54:43.687Z,99185.67
2019-01-29T05:57:15.252Z,99192.31
2019-01-29T05:59:46.913Z,99198.06
2019-01-29T06:02:18.836Z,99188.90
2019-01-29T06:04:50.476Z,99194.20
2019-01-29T06:07:22.232Z,99195.14
2019-01-29T06:09:53.812Z,99206.68
2019-01-29T06:12:25.765Z,99205.07
2019-01-29T06:14:57.348Z,99211.03
2019-01-29T06:17:28.953Z,99217.86
2019-01-29T06:20:00.632Z,99223.05
2019-01-29T06:22:32.261Z,99227.52
2019-01-29T06:25:03.857Z,99238.20
2019-01-29T06:27:35.843Z,99240.96
2019-01-29T06:30:08.740Z,99248.04
2019-01-29T06:32:40.326Z,99248.42
2019-01-29T06:35:13.507Z,99246.55
2019-01-29T06:37:45.210Z,99247.67
2019-01-29T06:40:21.980Z,99256.84
2019-01-29T06:42:53.607Z,99263.59
2019-01-29T06:45:25.328Z,99269.73
2019-01-29T06:47:56.880Z,99277.61
2019-01-29T06:50:28.448Z,99283.86
2019-01-29T06:53:00.099Z,99286.13
2019-01-29T06:55:31.659Z,99296.71
2019-01-29T06:58:03.224Z,99301.84
2019-01-29T07:00:34.886Z,99310.84
2019-01-29T07:03:06.461Z,99309.02
2019-01-29T07:05:38.031Z,99315.39
2019-01-29T07:08:09.684Z,99313.77
2019-01-29T07:10:41.332Z,99319.09
2019-01-29T07:13:12.962Z,99327.13
2019-01-29T07:16:01.880Z,99330.47
2019-01-29T07:18:55.368Z,99333.58
2019-01-29T07:21:27.015Z,99343.44
2019-01-29T07:23:58.655Z,99344.95
2019-01-29T07:26:30.280Z,99350.94
2019-01-29T07:29:01.960Z,99356.62
2019-01-29T07:31:34.194Z,99366.16
2019-01-29T07:34:06.140Z,99364.62
2019-01-29T07:36:37.987Z,99364.62
2019-01-29T07:39:13.662Z,99377.89
2019-01-29T07:41:45.570Z,99379.03
2019-01-29T07:44:17.569Z,99383.57
2019-01-29T07:46:51.331Z,99389.92
2019-01-29T07:49:23.631Z,99391.35
2019-01-29T07:51:55.644Z,99404.89
2019-01-29T07:54:33.204Z,99404.70
2019-01-29T07:57:00.853Z,99410.88
2019-01-29T07:59:33.316Z,99409.94
2019-01-29T08:02:05.097Z,99419.59
2019-01-29T08:04:36.824Z,99425.18
2019-01-29T08:07:08.409Z,99426.89
2019-01-29T08:09:40.080Z,99432.06
2019-01-29T08:12:11.731Z,99444.09
2019-01-29T08:14:43.284Z,99448.73
2019-01-29T08:17:14.941Z,99450.13
2019-01-29T08:19:46.556Z,99459.23
2019-01-29T08:22:19.054Z,99456.41
2019-01-29T08:24:51.950Z,99460.84
2019-01-29T08:27:23.973Z,99461.29
2019-01-29T08:29:56.612Z,99464.12
2019-01-29T08:32:28.516Z,99467.48
2019-01-29T08:35:00.374Z,99471.09
2019-01-29T08:37:32.644Z,99480.09
2019-01-29T08:40:04.756Z,99481.77
2019-01-29T08:42:36.450Z,99491.51
2019-01-29T08:45:08.838Z,99495.80
2019-01-29T08:47:42.134Z,99499.08
2019-01-29T08:50:16.825Z,99509.30
2019-01-29T08:52:48.408Z,99514.33
2019-01-29T08:55:25.718Z,99517.97
2019-01-29T08:57:58.097Z,99520.67
2019-01-29T09:00:30.296Z,99518.20
2019-01-29T09:03:02.566Z,99528.84
2019-01-29T09:05:34.365Z,99532.38
2019-01-29T09:08:06.867Z,99538.80
2019-01-29T09:10:38.982Z,99547.09
2019-01-29T09:13:10.674Z,99547.44
2019-01-29T09:15:42.355Z,99555.11
2019-01-29T09:18:17.164Z,99558.82
2019-01-29T09:20:51.057Z,99564.95
2019-01-29T09:23:23.740Z,99567.66
2019-01-29T09:25:55.557Z,99565.28
2019-01-29T09:28:29.488Z,99570.48
2019-01-29T09:31:01.199Z,99572.24
2019-01-29T09:33:32.846Z,99574.77
2019-01-29T09:36:04.641Z,99579.95
2019-01-29T09:38:36.288Z,99590.63
2019-01-29T09:41:07.923Z,99589.80
2019-01-29T09:43:39.568Z,99597.25
2019-01-29T09:46:11.197Z,99598.97
2019-01-29T09:48:43.164Z,99602.88
2019-01-29T09:51:14.794Z,99610.22
2019-01-29T09:53:46.471Z,99607.92
2019-01-29T09:56:18.532Z,99611.06
2019-01-29T09:58:50.509Z,99617.91
2019-01-29T10:01:22.436Z,99615.33
2019-01-29T10:03:54.042Z,99617.52
2019-01-29T10:06:25.671Z,99626.92
2019-01-29T10:08:57.326Z,99622.17
2019-01-29T10:11:28.893Z,99620.14
2019-01-29T10:14:00.476Z,99629.76
2019-01-29T10:16:32.042Z,99632.51
2019-01-29T10:19:03.613Z,99636.83
2019-01-29T10:21:35.251Z,99628.88
2019-01-29T10:24:07.233Z,99636.16
2019-01-29T10:26:38.887Z,99634.27
2019-01-29T10:29:10.543Z,99636.48
2019-01-29T10:31:42.188Z,99642.13
2019-01-29T10:34:13.772Z,99632.55
2019-01-29T10:36:45.392Z,99638.66
2019-01-29T10:39:16.961Z,99643.33
2019-01-29T10:41:48.594Z,99649.46
2019-01-29T10:44:20.834Z,99651.90
2019-01-29T10:46:52.463Z,99648.16
2019-01-29T10:49:24.107Z,99651.52
2019-01-29T10:51:55.733Z,99649.09
2019-01-29T10:54:27.574Z,99645.53
2019-01-29T10:56:59.205Z,99640.20
2019-01-29T10:59:30.867Z,99651.02
2019-01-29T11:02:02.411Z,99648.05
2019-01-29T11:04:34.975Z,99650.09
2019-01-29T11:07:06.701Z,99646.84
2019-01-29T11:09:38.270Z,99654.81
2019-01-29T11:12:09.839Z,99652.36
2019-01-29T11:14:41.799Z,99665.85
2019-01-29T11:17:13.416Z,99667.80
2019-01-29T11:19:45.060Z,99671.09
2019-01-29T11:22:16.680Z,99679.08
2019-01-29T11:24:48.546Z,99682.19
2019-01-29T11:27:20.405Z,99677.40
2019-01-29T11:29:52.425Z,99682.56
2019-01-29T11:32:24.137Z,99683.40
2019-01-29T11:34:55.736Z,99687.04
2019-01-29T11:37:27.504Z,99685.45
2019-01-29T11:39:59.164Z,99688.33
2019-01-29T11:42:31.792Z,99699.11
2019-01-29T11:45:03.475Z,99691.38
2019-01-29T11:47:35.103Z,99695.89
2019-01-29T11:50:07.203Z,99697.63
2019-01-29T11:52:38.841Z,99699.33
2019-01-29T11:55:10.562Z,99702.78
2019-01-29T11:57:42.273Z,99705.48
2019-01-29T12:00:19.535Z,99711.59
2019-01-29T12:02:51.445Z,99711.70
2019-01-29T12:05:23.355Z,99716.07
2019-01-29T12:07:55.259Z,99723.15
2019-01-29T12:10:27.091Z,99726.42
2019-01-29T12:12:58.717Z,99735.39
2019-01-29T12:15:30.288Z,99749.73
2019-01-29T12:18:01.928Z,99744.13
2019-01-29T12:20:33.580Z,99748.25
2019-01-29T12:23:05.264Z,99749.80
2019-01-29T12:25:36.847Z,99751.23
2019-01-29T12:28:09.485Z,99752.05
2019-01-29T12:30:41.130Z,99751.56
2019-01-29T12:33:12.766Z,99752.66
2019-01-29T12:35:44.614Z,99758.19
2019-01-29T12:38:16.251Z,99751.23
2019-01-29T12:40:47.883Z,99748.75
2019-01-29T12:43:19.582Z,99749.14
2019-01-29T12:45:51.424Z,99747.11
2019-01-29T12:48:23.289Z,99748.83
2019-01-29T12:50:59.518Z,99760.77
2019-01-29T12:53:38.858Z,99767.39
2019-01-29T12:56:10.562Z,99768.83
2019-01-29T12:58:42.181Z,99756.86
2019-01-29T13:01:13.830Z,99762.58
2019-01-29T13:03:45.502Z,99765.98
2019-01-29T13:06:19.736Z,99763.46
2019-01-29T13:08:58.455Z,99768.28
2019-01-29T13:11:34.451Z,99775.59
2019-01-29T13:14:08.223Z,99782.89
2019-01-29T13:16:40.607Z,99795.55
2019-01-29T13:19:12.359Z,99784.80
2019-01-29T13:21:44.880Z,99783.25
2019-01-29T13:24:17.891Z,99785.00
2019-01-29T13:26:49.681Z,99791.45
2019-01-29T13:29:21.570Z,99795.64
2019-01-29T13:31:53.448Z,99803.64
2019-01-29T13:34:25.496Z,99811.19
2019-01-29T13:36:57.232Z,99818.86
2019-01-29T13:39:28.898Z,99819.48
2019-01-29T13:42:00.597Z,99824.39
2019-01-29T13:44:32.230Z,99822.60
2019-01-29T13:47:10.036Z,99817.41
2019-01-29T13:49:41.688Z,99813.06
2019-01-29T13:52:13.290Z,99820.41
2019-01-29T13:54:46.179Z,99814.09
2019-01-29T13:57:19.632Z,99822.95
2019-01-29T13:59:51.238Z,99831.89
2019-01-29T14:02:22.906Z,99815.30
2019-01-29T14:04:55.928Z,99826.53
2019-01-29T14:07:28.858Z,99829.03
2019-01-29T14:10:02.451Z,99840.23
2019-01-29T14:12:35.235Z,99841.41
2019-01-29T14:15:08.112Z,99844.06
2019-01-29T14:17:40.474Z,99840.33
2019-01-29T14:20:15.043Z,99848.27
2019-01-29T14:22:46.790Z,99844.21
2019-01-29T14:25:18.851Z,99853.03
2019-01-29T14:27:57.628Z,99855.89
2019-01-29T14:30:31.719Z,99855.34
2019-01-29T14:33:03.575Z,99865.74
2019-01-29T14:35:35.571Z,99864.23
2019-01-29T14:38:48.683Z,99863.78
2019-01-29T14:41:21.789Z,99860.14
2019-01-29T14:43:58.304Z,99862.56
2019-01-29T14:46:29.978Z,99866.23
2019-01-29T14:49:01.711Z,99862.20
2019-01-29T14:51:34.367Z,99866.09
2019-01-29T14:54:05.985Z,99858.38
2019-01-29T14:56:37.642Z,99858.52
2019-01-29T14:59:09.242Z,99863.81
2019-01-29T15:01:40.810Z,99867.98
2019-01-29T15:04:12.479Z,99865.48
2019-01-29T15:06:44.203Z,99869.13
2019-01-29T15:09:17.537Z,99881.78
2019-01-29T15:11:49.814Z,99877.86
2019-01-29T15:14:21.773Z,99880.03
2019-01-29T15:17:01.933Z,99877.09
2019-01-29T15:19:34.134Z,99870.43
2019-01-29T15:22:05.712Z,99872.04
2019-01-29T15:24:37.290Z,99877.13
2019-01-29T15:27:08.936Z,99877.36
2019-01-29T15:29:40.508Z,99879.05
2019-01-29T15:32:12.062Z,99879.80
2019-01-29T15:34:43.708Z,99879.41
2019-01-29T15:37:15.366Z,99885.67
2019-01-29T15:39:47.022Z,99889.07
2019-01-29T15:42:18.782Z,99891.32
2019-01-29T15:44:50.598Z,99897.59
2019-01-29T15:47:22.559Z,99899.44
2019-01-29T15:49:54.194Z,99902.47
2019-01-29T15:52:25.846Z,99899.32
2019-01-29T15:54:57.400Z,99899.80
2019-01-29T15:57:29.030Z,99899.21
2019-01-29T16:00:00.674Z,99901.75
2019-01-29T16:02:32.296Z,99897.88
2019-01-29T16:05:03.887Z,99901.48
2019-01-29T16:07:36.508Z,99904.47
2019-01-29T16:10:09.808Z,99908.52
2019-01-29T16:12:41.470Z,99909.39
2019-01-29T16:15:14.504Z,99914.69
2019-01-29T16:17:46.074Z,99918.30
2019-01-29T16:20:19.231Z,99921.96
2019-01-29T16:22:50.849Z,99923.05
2019-01-29T16:25:22.938Z,99928.69
2019-01-29T16:27:54.568Z,99928.76
2019-01-29T16:30:27.092Z,99931.20
2019-01-29T16:32:58.744Z,99935.23
2019-01-29T16:35:31.738Z,99927.09
2019-01-29T16:38:03.390Z,99933.86
2019-01-29T16:40:35.067Z,99931.27
2019-01-29T16:43:07.708Z,99932.59
2019-01-29T16:45:39.364Z,99931.41
2019-01-29T16:48:11.026Z,99932.67
2019-01-29T16:50:42.697Z,99934.15
2019-01-29T16:53:14.350Z,99928.22
2019-01-29T16:55:45.989Z,99931.95
2019-01-29T16:58:26.268Z,99932.09
2019-01-29T17:00:58.085Z,99929.53
2019-01-29T17:03:30.568Z,99922.21
2019-01-29T17:06:02.192Z,99920.53
2019-01-29T17:08:33.840Z,99920.17
2019-01-29T17:11:06.470Z,99925.58
2019-01-29T17:13:38.096Z,99927.01
2019-01-29T17:16:09.735Z,99935.31
2019-01-29T17:18:41.378Z,99934.80
2019-01-29T17:21:12.940Z,99930.42
2019-01-29T17:23:44.990Z,99930.23
2019-01-29T17:26:16.708Z,99927.59
2019-01-29T17:28:48.373Z,99925.25
2019-01-29T17:31:20.346Z,99932.97
2019-01-29T17:33:52.283Z,99930.12
2019-01-29T17:36:24.138Z,99927.03
2019-01-29T17:38:56.061Z,99931.58
2019-01-29T17:41:27.856Z,99932.11
2019-01-29T17:44:01.415Z,99932.51
2019-01-29T17:46:34.142Z,99936.52
2019-01-29T17:49:05.827Z,99939.25
2019-01-29T17:51:37.502Z,99930.79
2019-01-29T17:54:10.732Z,99926.77
2019-01-29T17:56:43.021Z,99928.41
2019-01-29T17:59:14.694Z,99933.88
2019-01-29T18:01:46.276Z,99925.09
2019-01-29T18:04:18.840Z,99928.84
2019-01-29T18:06:50.493Z,99929.89
2019-01-29T18:09:22.534Z,99928.97
2019-01-29T18:11:54.249Z,99926.98
2019-01-29T18:14:26.097Z,99925.91
2019-01-29T18:16:57.755Z,99933.06
2019-01-29T18:19:29.395Z,99936.95
2019-01-29T18:22:01.043Z,99944.30
2019-01-29T18:24:32.677Z,99948.19
2019-01-29T18:27:04.332Z,99949.16
2019-01-29T18:29:35.918Z,99951.80
2019-01-29T18:32:07.495Z,99947.52
2019-01-29T18:34:39.135Z,99951.48
2019-01-29T18:37:10.781Z,99954.58
2019-01-29T18:39:42.434Z,99956.70
2019-01-29T18:42:14.068Z,99955.77
2019-01-29T18:44:45.655Z,99959.12
2019-01-29T18:47:17.520Z,99964.37
2019-01-29T18:49:49.250Z,99958.88
2019-01-29T18:52:21.465Z,99959.58
2019-01-29T18:54:57.027Z,99957.55
2019-01-29T18:57:31.510Z,99956.23
2019-01-29T19:00:04.230Z,99957.21
2019-01-29T19:02:36.631Z,99952.93
2019-01-29T19:05:10.733Z,99957.21
2019-01-29T19:07:44.791Z,99958.52
2019-01-29T19:10:17.897Z,99955.89
2019-01-29T19:12:50.159Z,99960.03
2019-01-29T19:15:23.415Z,99962.43
2019-01-29T19:17:56.153Z,99960.69
2019-01-29T19:20:33.770Z,99960.72
2019-01-29T19:23:05.994Z,99961.25
2019-01-29T19:25:38.131Z,99958.20
2019-01-29T19:28:21.433Z,99960.89
2019-01-29T19:30:47.621Z,99959.48
2019-01-29T19:33:20.722Z,99969.11
2019-01-29T19:35:52.790Z,99968.92
2019-01-29T19:38:25.116Z,99972.05
2019-01-29T19:40:59.750Z,99973.19
2019-01-29T19:43:33.195Z,99970.57
2019-01-29T19:46:05.373Z,99971.67
2019-01-29T19:48:37.055Z,99975.78
2019-01-29T19:51:10.026Z,99974.85
2019-01-29T19:53:42.479Z,99981.61
2019-01-29T19:56:14.594Z,99980.52
2019-01-29T19:58:46.554Z,99980.00
2019-01-29T20:01:19.511Z,99980.66
2019-01-29T20:03:51.488Z,99980.76
2019-01-29T20:06:23.710Z,99982.88
2019-01-29T20:08:57.142Z,99987.33
2019-01-29T20:11:30.253Z,99989.21
2019-01-29T20:14:04.809Z,99990.92
2019-01-29T20:16:40.788Z,99988.81
2019-01-29T20:19:13.033Z,99983.45
2019-01-29T20:21:45.166Z,99985.63
2019-01-29T20:24:18.423Z,99990.39
2019-01-29T20:26:51.052Z,99989.87
2019-01-29T20:29:25.469Z,99988.08
2019-01-29T20:31:57.442Z,99984.63
2019-01-29T20:34:30.485Z,99985.70
2019-01-29T20:37:05.425Z,99983.31
2019-01-29T20:39:37.998Z,99984.63
2019-01-29T20:42:10.764Z,99983.09
2019-01-29T20:44:43.525Z,99980.53
2019-01-29T20:47:17.643Z,99981.70
2019-01-29T20:49:51.612Z,99977.45
2019-01-29T20:52:23.909Z,99965.84
2019-01-29T20:54:56.345Z,99976.83
2019-01-29T20:57:49.158Z,99965.95
2019-01-29T21:00:28.922Z,99962.91
2019-01-29T21:03:01.329Z,99966.20
2019-01-29T21:05:33.041Z,99964.23
2019-01-29T21:08:06.079Z,99965.64
2019-01-29T21:10:38.026Z,99963.53
2019-01-29T21:13:10.889Z,99969.42
2019-01-29T21:15:44.379Z,99961.33
2019-01-29T21:18:16.096Z,99966.74
2019-01-29T21:20:56.652Z,99974.30
2019-01-29T21:23:21.314Z,99967.02
2019-01-29T21:25:52.992Z,99968.20
2019-01-29T21:28:24.836Z,99966.66
2019-01-29T21:30:56.558Z,99966.46
2019-01-29T21:33:28.322Z,99966.38
2019-01-29T21:36:00.074Z,99963.16
2019-01-29T21:38:31.757Z,99956.83
2019-01-29T21:41:03.500Z,99961.27
2019-01-29T21:43:35.468Z,99956.84
2019-01-29T21:46:07.147Z,99958.43
2019-01-29T21:48:38.851Z,99962.48
2019-01-29T21:51:10.546Z,99958.69
2019-01-29T21:53:42.264Z,99961.02
2019-01-29T21:56:14.021Z,99963.81
2019-01-29T21:58:45.702Z,99962.20
2019-01-29T22:01:17.443Z,99966.74
2019-01-29T22:03:49.127Z,99961.59
2019-01-29T22:06:21.569Z,99960.91
2019-01-29T22:08:53.167Z,99959.89
2019-01-29T22:11:24.891Z,99958.17
2019-01-29T22:13:56.644Z,99954.96
2019-01-29T22:16:28.302Z,99958.17
2019-01-29T22:18:59.978Z,99953.47
2019-01-29T22:21:31.642Z,99955.64
2019-01-29T22:24:03.300Z,99960.48
2019-01-29T22:26:35.948Z,99959.98
2019-01-29T22:29:07.987Z,99962.23
2019-01-29T22:31:39.572Z,99955.33
2019-01-29T22:34:11.227Z,99959.78
2019-01-29T22:36:42.883Z,99957.08
2019-01-29T22:39:14.550Z,99957.78
2019-01-29T22:41:46.201Z,99954.96
2019-01-29T22:44:17.867Z,99957.92
2019-01-29T22:46:49.450Z,99947.29
2019-01-29T22:49:21.571Z,99950.25
2019-01-29T22:51:53.222Z,99949.26
2019-01-29T22:54:24.783Z,99947.45
2019-01-29T22:56:56.552Z,99946.61
2019-01-29T22:59:33.454Z,99948.16
2019-01-29T23:02:01.548Z,99947.37
2019-01-29T23:04:43.211Z,99943.16
2019-01-29T23:07:23.593Z,99938.16
2019-01-29T23:09:55.614Z,99948.22
2019-01-29T23:12:27.562Z,99942.78
2019-01-29T23:14:59.387Z,99942.38
2019-01-29T23:17:31.038Z,99940.75
2019-01-29T23:20:02.690Z,99942.88
2019-01-29T23:22:34.439Z,99945.24
2019-01-29T23:25:06.644Z,99945.70
2019-01-29T23:27:38.285Z,99942.20
2019-01-29T23:30:13.445Z,99943.04
2019-01-29T23:32:45.094Z,99942.34
2019-01-29T23:35:16.718Z,99938.72
2019-01-29T23:37:48.404Z,99939.37
2019-01-29T23:40:21.504Z,99940.70
2019-01-29T23:42:53.083Z,99936.14
2019-01-29T23:45:24.730Z,99936.78
2019-01-29T23:48:02.404Z,99933.34
2019-01-29T23:50:34.137Z,99935.45
2019-01-29T23:53:05.760Z,99931.25
2019-01-29T23:55:37.403Z,99934.45
2019-01-29T23:58:09.042Z,99928.99
